In Rescue
 
Open Full Screen Window  High Contrast Mode
Wind Gusting 00 knots
06
March 01, 2024 5:16 PM EST
Weather Information
Wind Direction
  160 °
Wind Speed
  06 kt (7 mph)
Wind Gust
  00 kt (0 mph)
Altimeter
30.11 in
Visibility
10 SM
Temperature
07° C
45° F
Dewpoint
-10° C
14° F
Humidity
29%
Sky Condition
Broken @ 8,500 ft
Broken @ 7,000 ft
Broken @ 5,500 ft
VFR

METAR KLWA 012216Z AUTO 16006KT 10SM BKN055 BKN070 BKN085 07/M10 A3011 RMK AO2 T00681096

FAA Disclaimer: The data displayed is for advisory purposes only and is not to be used for flight planning or operations.